Time;durP1;ratioP1;P1;durP2;ratioP2;P2;SDS_P1;SDS_P2;PMS_P1;PMS_P2;Temp;Humidity;BMP_temperature;BMP_pressure;BME280_temperature;BME280_humidity;BME280_pressure;Samples;Min_cycle;Max_cycle;Signal;HPM_P1;HPM_P2
2022/04/08 00:02:20;;;;;;;;;;;;;;;7.57;76.34;97431.44;5074023;28;20395;-60
2022/04/08 00:04:51;;;;;;;;;;;;;;;7.54;76.21;97430.13;5084114;28;19928;-60
2022/04/08 00:07:17;;;;;;;;;;;;;;;7.51;76.73;97431.44;5094247;28;19931;-61
2022/04/08 00:09:42;;;;;;;;;;;;;;;7.52;76.30;97432.22;5093949;28;19939;-62
2022/04/08 00:12:09;;;;;;;;;;;;;;;7.48;76.45;97425.91;5093902;28;19928;-63
2022/04/08 00:14:35;;;;;;;;;;;;;;;7.47;76.55;97421.66;5076277;28;19924;-62
2022/04/08 00:17:02;;;;;;;;;;;;;;;7.44;76.19;97414.28;5073270;28;20385;-63
2022/04/08 00:19:28;;;;;;;;;;;;;;;7.44;76.01;97419.56;5072068;28;19932;-62
2022/04/08 00:21:54;;;;;;;;;;;;;;;7.47;75.95;97409.28;5078782;28;19931;-60
2022/04/08 00:24:21;;;;;;;;;;;;;;;7.45;75.85;97414.03;5042817;28;20354;-63
2022/04/08 00:26:47;;;;;;;;;;;;;;;7.44;75.51;97409.81;5093361;28;19924;-63
2022/04/08 00:29:13;;;;;;;;;;;;;;;7.44;75.13;97414.28;5093427;28;19931;-63
2022/04/08 00:31:38;;;;;;;;;;;;;;;7.45;75.03;97410.63;5081324;28;19937;-63
2022/04/08 00:34:04;;;;;;;;;;;;;;;7.42;74.92;97406.66;5071810;28;19928;-62
2022/04/08 00:36:30;;;;;;;;;;;;;;;7.43;74.95;97404.81;5074550;28;19929;-62
2022/04/08 00:38:55;;;;;;;;;;;;;;;7.42;74.70;97404.03;5071798;28;19947;-63
2022/04/08 00:41:21;;;;;;;;;;;;;;;7.43;74.41;97404.81;5091820;28;20355;-62
2022/04/08 00:43:47;;;;;;;;;;;;;;;7.50;73.94;97397.44;5093175;28;20124;-63
2022/04/08 00:46:12;;;;;;;;;;;;;;;7.53;73.36;97402.19;5091967;28;19967;-60
2022/04/08 00:48:38;;;;;;;;;;;;;;;7.50;73.00;97392.94;5079285;28;20414;-64
2022/04/08 00:51:05;;;;;;;;;;;;;;;7.48;72.82;97392.41;5093342;28;19928;-64
2022/04/08 00:53:31;;;;;;;;;;;;;;;7.48;72.39;97384.50;5093127;28;19924;-65
2022/04/08 00:55:56;;;;;;;;;;;;;;;7.50;72.20;97387.69;5083982;28;20309;-64
2022/04/08 00:58:22;;;;;;;;;;;;;;;7.52;72.07;97390.03;5071616;28;19954;-63
2022/04/08 01:00:48;;;;;;;;;;;;;;;7.50;72.14;97390.31;5072952;28;19929;-63
2022/04/08 01:03:13;;;;;;;;;;;;;;;7.51;71.61;97388.47;5071693;28;19935;-61
2022/04/08 01:05:39;;;;;;;;;;;;;;;7.53;71.39;97385.53;5072775;28;19929;-64
2022/04/08 01:08:05;;;;;;;;;;;;;;;7.57;71.01;97386.59;5088251;28;20405;-63
2022/04/08 01:10:31;;;;;;;;;;;;;;;7.54;70.70;97382.66;5092919;28;19974;-63
2022/04/08 01:12:56;;;;;;;;;;;;;;;7.52;70.58;97374.22;5051715;28;19967;-63
2022/04/08 01:15:22;;;;;;;;;;;;;;;7.50;70.68;97385.03;5061383;28;19935;-65
2022/04/08 01:17:48;;;;;;;;;;;;;;;7.49;70.69;97385.28;5091695;28;19930;-64
2022/04/08 01:20:14;;;;;;;;;;;;;;;7.47;70.30;97382.13;5092830;28;19928;-63
2022/04/08 01:22:39;;;;;;;;;;;;;;;7.43;70.78;97384.50;5091342;28;19924;-65
2022/04/08 01:25:05;;;;;;;;;;;;;;;7.43;70.52;97383.72;5090259;28;19972;-65
2022/04/08 01:27:31;;;;;;;;;;;;;;;7.44;70.40;97382.66;5091008;28;20286;-64
2022/04/08 01:29:57;;;;;;;;;;;;;;;7.48;70.31;97386.34;5092262;28;19934;-61
2022/04/08 01:32:22;;;;;;;;;;;;;;;7.43;69.74;97379.22;5092276;28;19928;-60
2022/04/08 01:34:49;;;;;;;;;;;;;;;7.42;69.93;97382.94;5073079;28;19939;-60
2022/04/08 01:37:15;;;;;;;;;;;;;;;7.39;69.88;97374.78;5067960;28;19925;-61
2022/04/08 01:39:41;;;;;;;;;;;;;;;7.36;69.86;97375.31;5072300;28;20070;-61
2022/04/08 01:42:07;;;;;;;;;;;;;;;7.34;69.56;97377.41;5072099;28;19978;-60
2022/04/08 01:44:32;;;;;;;;;;;;;;;7.34;69.62;97377.41;5072034;28;19928;-59
2022/04/08 01:46:58;;;;;;;;;;;;;;;7.36;69.35;97378.72;5070563;28;20133;-61
2022/04/08 01:49:24;;;;;;;;;;;;;;;7.36;69.35;97384.00;5072047;28;19924;-61
2022/04/08 01:51:49;;;;;;;;;;;;;;;7.36;69.25;97384.00;5073069;28;20389;-62
2022/04/08 01:54:15;;;;;;;;;;;;;;;7.37;69.35;97385.56;5070551;28;19925;-61
2022/04/08 01:56:40;;;;;;;;;;;;;;;7.38;68.82;97387.16;5072167;28;19973;-61
2022/04/08 01:59:05;;;;;;;;;;;;;;;7.39;68.67;97390.59;5071884;28;19924;-60
2022/04/08 02:01:31;;;;;;;;;;;;;;;7.41;68.55;97388.47;5085966;28;20166;-62
2022/04/08 02:03:57;;;;;;;;;;;;;;;7.43;67.75;97381.88;5091970;28;19974;-62
2022/04/08 02:06:22;;;;;;;;;;;;;;;7.43;68.23;97389.78;5092220;28;19971;-60
2022/04/08 02:08:50;;;;;;;;;;;;;;;7.51;68.03;97383.19;5087793;28;20015;-62
2022/04/08 02:11:15;;;;;;;;;;;;;;;7.54;67.58;97382.66;5070632;28;19928;-62
2022/04/08 02:13:41;;;;;;;;;;;;;;;7.59;67.53;97389.75;5071898;28;20355;-64
2022/04/08 02:16:06;;;;;;;;;;;;;;;7.61;67.38;97383.16;5072851;28;19928;-63
2022/04/08 02:18:32;;;;;;;;;;;;;;;7.64;67.00;97390.53;5071991;28;20026;-63
2022/04/08 02:20:57;;;;;;;;;;;;;;;7.67;66.91;97386.56;5074436;28;19929;-63
2022/04/08 02:23:23;;;;;;;;;;;;;;;7.68;66.70;97394.22;5075682;28;19924;-59
2022/04/08 02:25:48;;;;;;;;;;;;;;;7.69;66.39;97390.53;5084555;28;20400;-63
2022/04/08 02:28:14;;;;;;;;;;;;;;;7.74;66.23;97397.66;5095743;28;19924;-63
2022/04/08 02:30:39;;;;;;;;;;;;;;;7.76;66.09;97390.25;5096056;28;19936;-62
2022/04/08 02:33:05;;;;;;;;;;;;;;;7.77;65.92;97393.69;5094488;28;20057;-61
2022/04/08 02:35:31;;;;;;;;;;;;;;;7.79;65.64;97391.56;5081459;28;19929;-63
2022/04/08 02:37:56;;;;;;;;;;;;;;;7.78;65.46;97390.00;5075496;28;19931;-65
2022/04/08 02:40:22;;;;;;;;;;;;;;;7.82;65.63;97396.31;5075563;28;20339;-64
2022/04/08 02:42:48;;;;;;;;;;;;;;;7.83;65.11;97400.53;5076539;28;19931;-63
2022/04/08 02:45:13;;;;;;;;;;;;;;;7.87;64.89;97404.19;5093103;28;19928;-62
2022/04/08 02:47:39;;;;;;;;;;;;;;;7.90;64.71;97403.66;5095373;28;19924;-63
2022/04/08 02:50:05;;;;;;;;;;;;;;;7.91;64.46;97387.59;5094173;28;19928;-63
2022/04/08 02:52:30;;;;;;;;;;;;;;;7.90;64.56;97393.13;5093739;28;20442;-62
2022/04/08 02:54:56;;;;;;;;;;;;;;;7.89;64.53;97400.25;5095397;28;19928;-62
2022/04/08 02:57:22;;;;;;;;;;;;;;;7.89;64.24;97399.47;5095206;28;19924;-62
2022/04/08 02:59:50;;;;;;;;;;;;;;;7.91;64.00;97398.13;5095082;28;19928;-60
2022/04/08 03:02:15;;;;;;;;;;;;;;;7.92;64.05;97402.34;5095386;28;20295;-59
2022/04/08 03:04:41;;;;;;;;;;;;;;;7.97;63.84;97397.06;5095134;28;19932;-60
2022/04/08 03:07:06;;;;;;;;;;;;;;;7.99;63.39;97407.34;5093677;28;20384;-62
2022/04/08 03:09:32;;;;;;;;;;;;;;;8.03;63.28;97399.66;5093804;28;19948;-61
2022/04/08 03:11:57;;;;;;;;;;;;;;;8.03;63.27;97402.31;5074375;28;19954;-60
2022/04/08 03:14:23;;;;;;;;;;;;;;;7.99;63.11;97402.06;5077299;28;19924;-60
2022/04/08 03:16:48;;;;;;;;;;;;;;;8.02;63.28;97404.16;5084446;28;19954;-60
2022/04/08 03:19:14;;;;;;;;;;;;;;;8.02;63.06;97395.47;5085706;28;19924;-59
2022/04/08 03:21:40;;;;;;;;;;;;;;;8.07;62.88;97395.44;5083516;28;20377;-60
2022/04/08 03:24:05;;;;;;;;;;;;;;;8.07;62.60;97406.00;5083042;28;19924;-61
2022/04/08 03:26:31;;;;;;;;;;;;;;;8.08;62.36;97397.00;5074586;28;19979;-60
2022/04/08 03:28:56;;;;;;;;;;;;;;;8.14;62.07;97406.50;5074515;28;20029;-59
2022/04/08 03:31:22;;;;;;;;;;;;;;;8.18;62.01;97412.81;5074351;28;20009;-59
2022/04/08 03:33:48;;;;;;;;;;;;;;;8.20;61.67;97413.31;5072958;28;19924;-58
2022/04/08 03:36:13;;;;;;;;;;;;;;;8.28;61.76;97418.06;5075382;28;19935;-59
2022/04/08 03:38:38;;;;;;;;;;;;;;;8.47;60.65;97418.28;5094375;28;19924;-59
2022/04/08 03:41:04;;;;;;;;;;;;;;;8.64;60.32;97417.91;5094623;28;19930;-59
2022/04/08 03:43:30;;;;;;;;;;;;;;;8.79;59.87;97417.03;5092045;28;19924;-59
2022/04/08 03:45:55;;;;;;;;;;;;;;;8.84;59.42;97417.00;5083510;28;20020;-60
2022/04/08 03:48:21;;;;;;;;;;;;;;;8.88;59.57;97410.09;5074118;28;19924;-61
2022/04/08 03:50:46;;;;;;;;;;;;;;;8.84;58.98;97412.50;5074477;28;20209;-59
2022/04/08 03:53:12;;;;;;;;;;;;;;;8.82;59.25;97414.66;5082460;28;19971;-61
2022/04/08 03:55:39;;;;;;;;;;;;;;;8.86;59.19;97415.69;5093084;28;20344;-60
2022/04/08 03:58:04;;;;;;;;;;;;;;;8.93;58.41;97420.66;5094379;28;19931;-60
2022/04/08 04:00:30;;;;;;;;;;;;;;;9.01;58.99;97414.00;5094658;28;19928;-60
2022/04/08 04:02:55;;;;;;;;;;;;;;;9.10;58.29;97412.34;5086863;28;19924;-60
2022/04/08 04:05:21;;;;;;;;;;;;;;;9.17;57.52;97417.31;5073938;28;20452;-61
2022/04/08 04:07:46;;;;;;;;;;;;;;;9.23;57.20;97416.19;5073774;28;19924;-60
2022/04/08 04:10:12;;;;;;;;;;;;;;;9.21;57.37;97419.13;5055941;28;19928;-59
2022/04/08 04:12:38;;;;;;;;;;;;;;;9.35;56.39;97423.78;5093894;28;19924;-62
2022/04/08 04:15:04;;;;;;;;;;;;;;;9.41;56.63;97420.84;5092119;28;20070;-62
2022/04/08 04:17:30;;;;;;;;;;;;;;;9.44;57.00;97427.41;5073778;28;20029;-63
2022/04/08 04:19:56;;;;;;;;;;;;;;;9.51;56.22;97425.25;5079696;28;20383;-61
2022/04/08 04:22:21;;;;;;;;;;;;;;;9.57;55.38;97434.69;5093685;28;19924;-61
2022/04/08 04:24:46;;;;;;;;;;;;;;;9.70;55.36;97435.91;5093666;28;20395;-61
2022/04/08 04:27:12;;;;;;;;;;;;;;;9.72;54.85;97428.47;5085472;28;19931;-61
2022/04/08 04:29:37;;;;;;;;;;;;;;;9.78;55.31;97424.72;5073355;28;19924;-62
2022/04/08 04:32:05;;;;;;;;;;;;;;;9.74;55.67;97431.66;5082029;28;19920;-62
2022/04/08 04:34:33;;;;;;;;;;;;;;;9.71;55.31;97426.91;5092508;28;20031;-62
2022/04/08 04:36:58;;;;;;;;;;;;;;;9.74;55.30;97426.34;5093378;28;19928;-65
2022/04/08 04:39:24;;;;;;;;;;;;;;;9.78;54.69;97427.38;5093425;28;19947;-63
2022/04/08 04:41:49;;;;;;;;;;;;;;;9.70;54.59;97433.25;5093033;28;20427;-64
2022/04/08 04:44:15;;;;;;;;;;;;;;;9.74;55.18;97426.34;5091393;28;20303;-62
2022/04/08 04:46:43;;;;;;;;;;;;;;;9.76;54.85;97437.44;5074598;28;19940;-62
2022/04/08 04:49:10;;;;;;;;;;;;;;;9.80;54.30;97427.88;5073134;28;19952;-63
2022/04/08 04:51:35;;;;;;;;;;;;;;;9.94;53.81;97425.34;5073131;28;19928;-64
2022/04/08 04:54:01;;;;;;;;;;;;;;;9.97;53.88;97424.78;5086732;28;19924;-63
2022/04/08 04:56:26;;;;;;;;;;;;;;;10.01;52.91;97417.88;5073112;28;19981;-61
2022/04/08 04:58:52;;;;;;;;;;;;;;;9.97;53.19;97417.66;5072617;28;19968;-63
2022/04/08 05:01:17;;;;;;;;;;;;;;;10.06;52.90;97411.72;5076384;28;19928;-60
2022/04/08 05:03:43;;;;;;;;;;;;;;;10.14;52.74;97419.81;5091538;28;19924;-60
2022/04/08 05:06:08;;;;;;;;;;;;;;;10.09;53.08;97419.91;5093075;28;19951;-61
2022/04/08 05:08:34;;;;;;;;;;;;;;;10.11;52.43;97423.03;5092683;28;20640;-62
2022/04/08 05:11:00;;;;;;;;;;;;;;;10.22;52.69;97426.38;5092890;28;20289;-61
2022/04/08 05:13:25;;;;;;;;;;;;;;;10.26;52.08;97426.59;5091683;28;19931;-62
2022/04/08 05:15:51;;;;;;;;;;;;;;;10.24;52.81;97417.06;5092766;28;20284;-61
2022/04/08 05:18:16;;;;;;;;;;;;;;;10.31;52.15;97421.25;5092897;28;19977;-63
2022/04/08 05:20:42;;;;;;;;;;;;;;;10.50;51.79;97416.81;5088977;28;19928;-61
2022/04/08 05:23:07;;;;;;;;;;;;;;;10.75;50.98;97407.72;5092405;28;19924;-60
2022/04/08 05:25:33;;;;;;;;;;;;;;;10.85;50.07;97415.53;5092290;28;19934;-63
2022/04/08 05:27:58;;;;;;;;;;;;;;;10.86;50.46;97417.09;5087482;28;19929;-61
2022/04/08 05:30:24;;;;;;;;;;;;;;;11.02;49.63;97417.66;5070817;28;19974;-63
2022/04/08 05:32:50;;;;;;;;;;;;;;;11.16;49.48;97417.72;5065636;28;19975;-67
2022/04/08 05:35:16;;;;;;;;;;;;;;;11.20;49.20;97407.31;5068742;28;19928;-57
2022/04/08 05:37:43;;;;;;;;;;;;;;;11.15;49.56;97416.16;5071449;28;19928;-60
2022/04/08 05:40:13;;;;;;;;;;;;;;;11.21;48.84;97422.16;5070727;28;19932;-62
2022/04/08 05:42:40;;;;;;;;;;;;;;;11.47;48.62;97419.88;5071640;28;19967;-58
2022/04/08 05:45:09;;;;;;;;;;;;;;;11.70;47.49;97421.59;5070349;28;20298;-61
2022/04/08 05:47:35;;;;;;;;;;;;;;;11.85;47.37;97415.25;5069907;28;20382;-61
2022/04/08 05:50:00;;;;;;;;;;;;;;;12.18;46.59;97421.28;5071755;28;19960;-60
2022/04/08 05:52:26;;;;;;;;;;;;;;;12.47;46.22;97420.97;5071259;28;19931;-61
2022/04/08 05:54:52;;;;;;;;;;;;;;;12.76;45.33;97419.81;5065096;28;19928;-61
2022/04/08 05:57:19;;;;;;;;;;;;;;;12.90;44.57;97417.13;5090712;28;20307;-62
2022/04/08 05:59:45;;;;;;;;;;;;;;;13.12;44.36;97413.72;5091761;28;19934;-62
2022/04/08 06:02:10;;;;;;;;;;;;;;;13.35;43.37;97417.19;5090249;28;19924;-61
2022/04/08 06:04:36;;;;;;;;;;;;;;;13.37;43.25;97415.78;5089534;28;19924;-61
2022/04/08 06:07:01;;;;;;;;;;;;;;;13.43;43.28;97413.78;5091373;28;19980;-60
2022/04/08 06:09:27;;;;;;;;;;;;;;;13.62;42.75;97417.03;5091042;28;19924;-59
2022/04/08 06:11:52;;;;;;;;;;;;;;;13.67;42.60;97425.97;5089745;28;19924;-62
2022/04/08 06:14:18;;;;;;;;;;;;;;;13.64;42.85;97420.16;5091558;28;20381;-61
2022/04/08 06:16:43;;;;;;;;;;;;;;;13.64;42.74;97422.06;5083454;28;20028;-59
2022/04/08 06:19:09;;;;;;;;;;;;;;;13.68;42.79;97425.69;5085442;28;19924;-61
2022/04/08 06:21:34;;;;;;;;;;;;;;;13.60;42.65;97423.75;5070060;28;19963;-59
2022/04/08 06:24:00;;;;;;;;;;;;;;;13.73;42.05;97433.53;5065488;28;20320;-62
2022/04/08 06:26:25;;;;;;;;;;;;;;;13.75;41.77;97430.56;5065945;28;19935;-61
2022/04/08 06:28:51;;;;;;;;;;;;;;;13.85;41.58;97432.97;5067660;28;19968;-60
2022/04/08 06:31:16;;;;;;;;;;;;;;;13.86;41.47;97432.66;5049265;28;19935;-62
2022/04/08 06:33:42;;;;;;;;;;;;;;;13.78;41.21;97437.94;5066481;28;20413;-62
2022/04/08 06:36:08;;;;;;;;;;;;;;;13.71;41.35;97433.06;5067238;28;19939;-61
2022/04/08 06:38:33;;;;;;;;;;;;;;;13.88;40.87;97427.03;5067072;28;19927;-63
2022/04/08 06:40:59;;;;;;;;;;;;;;;13.95;41.15;97438.03;5086634;28;19932;-61
2022/04/08 06:43:24;;;;;;;;;;;;;;;14.14;40.92;97443.13;5084836;28;19924;-61
2022/04/08 06:45:50;;;;;;;;;;;;;;;14.10;40.54;97428.84;5084165;28;19928;-60
2022/04/08 06:48:15;;;;;;;;;;;;;;;14.15;40.28;97433.25;5085233;28;19977;-61
2022/04/08 06:50:41;;;;;;;;;;;;;;;14.18;40.34;97433.44;5071049;28;20001;-61
2022/04/08 06:53:07;;;;;;;;;;;;;;;14.24;40.43;97426.09;5067284;28;19924;-62
2022/04/08 06:55:34;;;;;;;;;;;;;;;14.26;40.24;97432.66;5066707;28;20448;-59
2022/04/08 06:58:01;;;;;;;;;;;;;;;14.45;40.06;97427.09;5070165;28;19924;-62
2022/04/08 07:00:27;;;;;;;;;;;;;;;14.70;39.51;97428.25;5067979;28;20009;-62
2022/04/08 07:02:52;;;;;;;;;;;;;;;14.71;39.49;97424.50;5068742;28;19928;-60
2022/04/08 07:05:18;;;;;;;;;;;;;;;14.61;39.57;97429.34;5078522;28;20305;-60
2022/04/08 07:07:47;;;;;;;;;;;;;;;14.67;39.43;97430.75;5092716;28;20013;-63
2022/04/08 07:10:13;;;;;;;;;;;;;;;15.01;38.63;97427.34;5088873;28;19935;-61
2022/04/08 07:12:38;;;;;;;;;;;;;;;15.32;37.71;97429.03;5076851;28;20121;-62
2022/04/08 07:15:04;;;;;;;;;;;;;;;15.19;38.08;97422.78;5074292;28;19933;-62
2022/04/08 07:17:30;;;;;;;;;;;;;;;15.24;37.79;97432.53;5070544;28;19924;-59
2022/04/08 07:19:56;;;;;;;;;;;;;;;15.44;38.07;97426.50;5070469;28;19940;-59
2022/04/08 07:22:22;;;;;;;;;;;;;;;15.57;37.10;97427.44;5079307;28;19943;-61
2022/04/08 07:24:48;;;;;;;;;;;;;;;15.67;37.11;97430.56;5070845;28;19975;-60
2022/04/08 07:27:13;;;;;;;;;;;;;;;15.82;36.46;97425.81;5069513;28;19964;-61
2022/04/08 07:29:39;;;;;;;;;;;;;;;15.70;36.84;97420.38;5072366;28;19932;-62
2022/04/08 07:32:05;;;;;;;;;;;;;;;15.72;36.57;97426.19;5070736;28;20370;-61
2022/04/08 07:34:30;;;;;;;;;;;;;;;15.80;36.36;97426.16;5070627;28;20381;-62
2022/04/08 07:36:55;;;;;;;;;;;;;;;15.79;36.19;97432.59;5071760;28;19925;-60
2022/04/08 07:39:21;;;;;;;;;;;;;;;15.74;36.91;97427.44;5071333;28;19947;-61
2022/04/08 07:41:46;;;;;;;;;;;;;;;15.61;36.66;97415.78;5070135;28;19928;-59
2022/04/08 07:44:12;;;;;;;;;;;;;;;15.64;37.77;97420.50;5041136;28;19935;-61
2022/04/08 07:46:38;;;;;;;;;;;;;;;15.87;37.64;97426.44;5060960;28;19932;-62
2022/04/08 07:49:04;;;;;;;;;;;;;;;15.94;37.38;97420.59;5087523;28;20419;-63
2022/04/08 07:51:29;;;;;;;;;;;;;;;15.93;36.60;97436.97;5086888;28;19932;-62
2022/04/08 07:53:55;;;;;;;;;;;;;;;15.99;37.99;97423.09;5074380;28;19924;-61
2022/04/08 07:56:20;;;;;;;;;;;;;;;16.03;37.05;97425.91;5070938;28;19928;-62
2022/04/08 07:58:47;;;;;;;;;;;;;;;15.93;36.60;97424.38;5074336;28;20305;-61
2022/04/08 08:01:13;;;;;;;;;;;;;;;15.80;36.25;97433.41;5089601;28;19935;-62
2022/04/08 08:03:38;;;;;;;;;;;;;;;15.64;36.90;97435.75;5087979;28;19928;-61
2022/04/08 08:06:04;;;;;;;;;;;;;;;15.52;36.90;97432.94;5072192;28;19952;-62
2022/04/08 08:08:29;;;;;;;;;;;;;;;15.23;37.89;97426.38;5068176;28;19928;-61
2022/04/08 08:10:55;;;;;;;;;;;;;;;15.30;37.56;97426.69;5070345;28;19928;-60
2022/04/08 08:13:21;;;;;;;;;;;;;;;15.11;37.49;97429.69;5082720;28;19966;-61
2022/04/08 08:15:46;;;;;;;;;;;;;;;15.18;37.25;97424.66;5080289;28;19974;-59
2022/04/08 08:18:12;;;;;;;;;;;;;;;15.13;37.95;97422.16;5088106;28;19968;-60
2022/04/08 08:20:37;;;;;;;;;;;;;;;15.14;37.09;97423.72;5088688;28;19932;-60
2022/04/08 08:23:04;;;;;;;;;;;;;;;15.12;37.84;97428.59;5088095;28;19931;-62
2022/04/08 08:25:30;;;;;;;;;;;;;;;15.13;37.01;97429.38;5090105;28;19932;-62
2022/04/08 08:27:59;;;;;;;;;;;;;;;15.27;37.42;97427.34;5087388;28;20030;-61
2022/04/08 08:30:27;;;;;;;;;;;;;;;15.35;36.36;97412.38;5067138;28;19928;-60
2022/04/08 08:32:52;;;;;;;;;;;;;;;15.32;37.04;97408.47;5078263;28;19975;-62
2022/04/08 08:35:18;;;;;;;;;;;;;;;15.28;36.27;97412.09;5068060;28;19960;-63
2022/04/08 08:37:44;;;;;;;;;;;;;;;15.29;36.23;97416.31;5068460;28;20363;-62
2022/04/08 08:40:11;;;;;;;;;;;;;;;15.21;36.89;97408.03;5068196;28;19972;-60
2022/04/08 08:42:37;;;;;;;;;;;;;;;15.36;36.79;97406.75;5055278;28;19931;-62
2022/04/08 08:45:03;;;;;;;;;;;;;;;15.48;36.16;97402.66;5048853;28;19928;-60
2022/04/08 08:47:29;;;;;;;;;;;;;;;15.19;36.65;97391.53;5059459;28;19947;-62
2022/04/08 08:49:55;;;;;;;;;;;;;;;15.27;36.08;97395.31;5084825;28;20407;-61
2022/04/08 08:52:20;;;;;;;;;;;;;;;15.43;36.14;97395.59;5067897;28;19924;-62
2022/04/08 08:54:46;;;;;;;;;;;;;;;15.44;36.11;97397.13;5060243;28;19928;-60
2022/04/08 08:57:15;;;;;;;;;;;;;;;15.36;35.96;97395.28;5073876;28;20026;-62
2022/04/08 08:59:41;;;;;;;;;;;;;;;15.19;36.30;97388.88;5088139;28;20385;-62
2022/04/08 09:02:06;;;;;;;;;;;;;;;15.26;36.28;97384.94;5087182;28;19953;-62
2022/04/08 09:04:32;;;;;;;;;;;;;;;15.35;35.65;97377.69;5087962;28;20392;-61
2022/04/08 09:06:58;;;;;;;;;;;;;;;15.37;35.97;97383.50;5067791;28;19947;-62
2022/04/08 09:09:33;;;;;;;;;;;;;;;15.25;36.20;97383.38;5071993;28;19924;-61
2022/04/08 09:12:11;;;;;;;;;;;;;;;15.21;35.91;97378.66;5047500;28;19924;-63
2022/04/08 09:14:37;;;;;;;;;;;;;;;15.31;36.42;97382.88;5058514;28;20566;-62
2022/04/08 09:17:03;;;;;;;;;;;;;;;15.40;35.77;97372.97;5069688;28;19969;-61
2022/04/08 09:19:35;;;;;;;;;;;;;;;15.39;35.40;97382.09;5068503;28;20595;-62
2022/04/08 09:22:00;;;;;;;;;;;;;;;15.15;35.79;97371.94;5067826;28;20026;-61
2022/04/08 09:24:29;;;;;;;;;;;;;;;15.42;35.41;97375.34;5061928;28;20019;-60
2022/04/08 09:26:55;;;;;;;;;;;;;;;15.54;35.44;97366.66;5029593;28;19924;-61
2022/04/08 09:29:22;;;;;;;;;;;;;;;15.55;35.20;97366.34;5065350;28;19931;-59
2022/04/08 09:31:48;;;;;;;;;;;;;;;15.53;34.92;97365.06;5070378;28;20026;-62
2022/04/08 09:34:16;;;;;;;;;;;;;;;15.44;35.00;97370.44;5087220;28;20408;-63
2022/04/08 09:36:42;;;;;;;;;;;;;;;15.44;34.81;97363.25;5089977;28;19964;-60
2022/04/08 09:39:10;;;;;;;;;;;;;;;15.44;35.17;97373.09;5088458;28;20323;-63
2022/04/08 09:41:53;;;;;;;;;;;;;;;15.53;35.17;97373.09;5089497;28;20026;-62
2022/04/08 09:44:24;;;;;;;;;;;;;;;15.33;34.82;97364.69;5089330;28;19924;-61
2022/04/08 09:46:50;;;;;;;;;;;;;;;15.35;35.21;97372.34;5089264;28;20385;-60
2022/04/08 09:49:15;;;;;;;;;;;;;;;15.47;35.12;97366.34;5073807;28;19978;-62
2022/04/08 09:51:41;;;;;;;;;;;;;;;15.59;35.00;97358.50;5049903;28;19955;-60
2022/04/08 09:54:10;;;;;;;;;;;;;;;15.25;34.92;97367.34;5066356;28;20322;-61
2022/04/08 09:56:36;;;;;;;;;;;;;;;15.15;35.09;97360.47;5056335;28;19928;-61
2022/04/08 09:59:06;;;;;;;;;;;;;;;15.26;35.07;97356.34;5069550;28;19931;-62
2022/04/08 10:01:31;;;;;;;;;;;;;;;15.29;35.50;97358.38;5071261;28;19973;-59
2022/04/08 10:03:57;;;;;;;;;;;;;;;15.33;35.11;97366.56;5068997;28;20432;-63
2022/04/08 10:06:23;;;;;;;;;;;;;;;15.37;35.45;97351.47;5049373;28;20356;-61
2022/04/08 10:08:49;;;;;;;;;;;;;;;15.47;34.68;97348.47;5049439;28;19964;-64
2022/04/08 10:11:19;;;;;;;;;;;;;;;15.53;34.92;97359.75;5068025;28;19928;-61
2022/04/08 10:13:49;;;;;;;;;;;;;;;15.54;34.57;97351.41;5050163;28;19928;-61
2022/04/08 10:16:15;;;;;;;;;;;;;;;15.47;34.82;97361.81;5055004;28;19935;-61
2022/04/08 10:18:41;;;;;;;;;;;;;;;15.72;34.70;97352.16;5049623;28;19925;-62
2022/04/08 10:21:07;;;;;;;;;;;;;;;15.87;34.34;97351.63;5060448;28;19964;-62
2022/04/08 10:23:37;;;;;;;;;;;;;;;15.73;34.41;97361.75;5068222;28;19990;-61
2022/04/08 10:26:04;;;;;;;;;;;;;;;15.74;34.77;97343.84;5066068;28;19981;-62
2022/04/08 10:28:33;;;;;;;;;;;;;;;15.70;34.63;97357.03;5069824;28;19928;-62
2022/04/08 10:30:59;;;;;;;;;;;;;;;15.64;34.87;97347.63;5066712;28;19932;-61
2022/04/08 10:33:28;;;;;;;;;;;;;;;15.51;35.30;97351.28;5066260;28;19924;-63
2022/04/08 10:35:54;;;;;;;;;;;;;;;15.38;35.29;97345.81;5067933;28;19971;-64
2022/04/08 10:38:19;;;;;;;;;;;;;;;15.34;35.84;97344.88;5069320;28;19975;-62
2022/04/08 10:40:56;;;;;;;;;;;;;;;15.41;35.92;97344.38;5070634;28;20365;-62
2022/04/08 10:43:21;;;;;;;;;;;;;;;15.35;35.75;97348.31;5072312;28;19931;-62
2022/04/08 10:45:56;;;;;;;;;;;;;;;15.34;35.80;97339.53;5067468;28;20315;-61
2022/04/08 10:48:21;;;;;;;;;;;;;;;15.24;35.58;97339.09;5075667;28;20380;-61
2022/04/08 10:50:47;;;;;;;;;;;;;;;15.38;35.64;97329.81;5058062;28;19928;-62
2022/04/08 10:53:13;;;;;;;;;;;;;;;15.52;35.62;97336.81;5066924;28;19924;-62
2022/04/08 10:55:47;;;;;;;;;;;;;;;15.62;35.22;97334.59;5058371;28;20380;-61
2022/04/08 10:58:15;;;;;;;;;;;;;;;15.53;35.42;97333.03;5047757;28;19936;-62
2022/04/08 11:00:41;;;;;;;;;;;;;;;15.41;35.51;97331.03;5052183;28;19928;-61
2022/04/08 11:03:10;;;;;;;;;;;;;;;15.50;35.14;97325.66;5047647;28;20353;-61
2022/04/08 11:05:38;;;;;;;;;;;;;;;15.40;35.55;97330.25;5068413;28;19964;-63
2022/04/08 11:08:03;;;;;;;;;;;;;;;15.38;35.55;97335.16;5071002;28;19924;-62
2022/04/08 11:10:31;;;;;;;;;;;;;;;15.39;35.68;97323.34;5082866;28;19936;-61
2022/04/08 11:12:57;;;;;;;;;;;;;;;15.19;36.46;97324.81;5081411;28;19935;-60
2022/04/08 11:15:23;;;;;;;;;;;;;;;15.31;36.31;97321.50;5051408;28;19929;-59
2022/04/08 11:17:49;;;;;;;;;;;;;;;15.23;36.32;97311.63;5061818;28;19924;-61
2022/04/08 11:20:15;;;;;;;;;;;;;;;15.28;36.34;97313.34;5069617;28;19929;-60
2022/04/08 11:22:41;;;;;;;;;;;;;;;15.17;36.73;97320.91;5067500;28;19924;-62
2022/04/08 11:25:08;;;;;;;;;;;;;;;15.22;36.74;97318.06;5071060;28;19929;-61
2022/04/08 11:27:35;;;;;;;;;;;;;;;15.25;37.42;97313.97;5068121;28;19916;-60
2022/04/08 11:30:06;;;;;;;;;;;;;;;15.20;37.40;97321.03;5017484;28;19934;-61
2022/04/08 11:32:32;;;;;;;;;;;;;;;15.21;37.04;97319.19;5072781;28;20452;-64
2022/04/08 11:34:57;;;;;;;;;;;;;;;15.15;38.09;97323.13;5060460;28;20027;-61
2022/04/08 11:37:26;;;;;;;;;;;;;;;15.12;38.20;97310.41;5067410;28;19935;-63
2022/04/08 11:39:58;;;;;;;;;;;;;;;15.01;38.39;97309.16;5089140;28;19939;-61
2022/04/08 11:42:24;;;;;;;;;;;;;;;14.85;38.71;97295.53;5088126;28;19923;-61
2022/04/08 11:44:50;;;;;;;;;;;;;;;14.68;39.16;97304.34;5048209;28;20424;-59
2022/04/08 11:47:17;;;;;;;;;;;;;;;14.73;39.99;97302.28;5049880;28;20450;-62
2022/04/08 11:49:42;;;;;;;;;;;;;;;14.60;40.17;97292.56;5054632;28;20055;-62
2022/04/08 11:52:08;;;;;;;;;;;;;;;14.64;39.96;97311.38;5067820;28;20019;-61
2022/04/08 11:54:37;;;;;;;;;;;;;;;14.67;40.38;97300.09;5056465;28;19970;-63
2022/04/08 11:57:05;;;;;;;;;;;;;;;14.91;40.64;97302.25;5087761;28;19928;-63
2022/04/08 11:59:31;;;;;;;;;;;;;;;15.05;40.26;97294.88;5070929;28;19944;-64
2022/04/08 12:01:59;;;;;;;;;;;;;;;15.10;40.23;97291.25;5070830;28;20388;-62
2022/04/08 12:04:25;;;;;;;;;;;;;;;15.07;40.77;97295.34;5069039;28;19959;-61
2022/04/08 12:06:50;;;;;;;;;;;;;;;14.88;41.45;97287.69;5069571;28;19968;-61
2022/04/08 12:09:16;;;;;;;;;;;;;;;14.74;41.91;97284.41;5072591;28;19931;-63
2022/04/08 12:11:43;;;;;;;;;;;;;;;14.67;42.17;97284.09;5089475;28;19981;-62
2022/04/08 12:14:09;;;;;;;;;;;;;;;14.53;42.64;97279.72;5091097;28;20376;-62
2022/04/08 12:16:38;;;;;;;;;;;;;;;14.38;43.57;97266.03;5091854;28;20022;-61
2022/04/08 12:19:04;;;;;;;;;;;;;;;14.27;43.78;97278.91;5069291;28;19924;-60
2022/04/08 12:21:30;;;;;;;;;;;;;;;14.29;43.87;97285.50;5085228;28;19932;-62
2022/04/08 12:23:56;;;;;;;;;;;;;;;14.29;44.30;97277.50;5076236;28;20036;-62
2022/04/08 12:26:26;;;;;;;;;;;;;;;14.27;44.35;97277.03;5071601;28;19935;-63
2022/04/08 12:29:01;;;;;;;;;;;;;;;14.13;44.65;97270.25;5081650;28;19924;-61
2022/04/08 12:31:27;;;;;;;;;;;;;;;14.12;44.84;97268.69;5082028;28;19940;-59
2022/04/08 12:33:53;;;;;;;;;;;;;;;14.13;44.99;97271.03;5073975;28;19924;-63
2022/04/08 12:36:19;;;;;;;;;;;;;;;14.14;45.06;97255.84;5090623;28;19928;-62
2022/04/08 12:38:45;;;;;;;;;;;;;;;14.02;44.28;97262.56;5072300;28;19935;-62
2022/04/08 12:41:11;;;;;;;;;;;;;;;14.12;43.73;97266.00;5048757;28;19928;-61
2022/04/08 12:43:37;;;;;;;;;;;;;;;14.15;44.10;97260.88;5069014;28;19928;-61
2022/04/08 12:46:03;;;;;;;;;;;;;;;14.19;44.49;97251.16;5064377;28;20330;-61